sensor_id;sensor_type;location;lat;lon;timestamp;P1;durP1;ratioP1;P2;durP2;ratioP2
46835;SDS011;32573;51.290;6.926;2023-07-28T00:00:42;2.50;;;1.15;;
46835;SDS011;32573;51.290;6.926;2023-07-28T00:03:10;2.30;;;1.00;;
46835;SDS011;32573;51.290;6.926;2023-07-28T00:05:39;2.67;;;1.10;;
46835;SDS011;32573;51.290;6.926;2023-07-28T00:08:08;2.97;;;1.20;;
46835;SDS011;32573;51.290;6.926;2023-07-28T00:10:39;3.05;;;1.25;;
46835;SDS011;32573;51.290;6.926;2023-07-28T00:13:09;3.10;;;1.27;;
46835;SDS011;32573;51.290;6.926;2023-07-28T00:15:38;2.63;;;1.20;;
46835;SDS011;32573;51.290;6.926;2023-07-28T00:18:06;2.53;;;1.00;;
46835;SDS011;32573;51.290;6.926;2023-07-28T00:20:35;3.00;;;1.25;;
46835;SDS011;32573;51.290;6.926;2023-07-28T00:23:03;2.72;;;1.10;;
46835;SDS011;32573;51.290;6.926;2023-07-28T00:25:32;3.42;;;1.60;;
46835;SDS011;32573;51.290;6.926;2023-07-28T00:28:00;3.22;;;1.30;;
46835;SDS011;32573;51.290;6.926;2023-07-28T00:30:30;3.30;;;1.20;;
46835;SDS011;32573;51.290;6.926;2023-07-28T00:32:59;3.63;;;1.20;;
46835;SDS011;32573;51.290;6.926;2023-07-28T00:35:27;3.15;;;1.60;;
46835;SDS011;32573;51.290;6.926;2023-07-28T00:37:56;2.75;;;1.23;;
46835;SDS011;32573;51.290;6.926;2023-07-28T00:40:25;2.75;;;1.30;;
46835;SDS011;32573;51.290;6.926;2023-07-28T00:42:54;2.60;;;1.20;;
46835;SDS011;32573;51.290;6.926;2023-07-28T00:45:23;4.15;;;1.27;;
46835;SDS011;32573;51.290;6.926;2023-07-28T00:47:53;4.28;;;1.40;;
46835;SDS011;32573;51.290;6.926;2023-07-28T00:50:24;3.05;;;1.20;;
46835;SDS011;32573;51.290;6.926;2023-07-28T00:52:54;3.00;;;1.27;;
46835;SDS011;32573;51.290;6.926;2023-07-28T00:55:23;2.88;;;1.20;;
46835;SDS011;32573;51.290;6.926;2023-07-28T00:57:51;4.07;;;1.20;;
46835;SDS011;32573;51.290;6.926;2023-07-28T01:00:20;3.58;;;1.67;;
46835;SDS011;32573;51.290;6.926;2023-07-28T01:02:48;3.15;;;1.42;;
46835;SDS011;32573;51.290;6.926;2023-07-28T01:05:18;3.10;;;1.27;;
46835;SDS011;32573;51.290;6.926;2023-07-28T01:07:51;3.13;;;1.20;;
46835;SDS011;32573;51.290;6.926;2023-07-28T01:10:26;2.55;;;1.10;;
46835;SDS011;32573;51.290;6.926;2023-07-28T01:12:58;2.83;;;1.08;;
46835;SDS011;32573;51.290;6.926;2023-07-28T01:15:27;3.22;;;1.20;;
46835;SDS011;32573;51.290;6.926;2023-07-28T01:17:56;3.13;;;1.10;;
46835;SDS011;32573;51.290;6.926;2023-07-28T01:20:26;2.45;;;1.10;;
46835;SDS011;32573;51.290;6.926;2023-07-28T01:23:05;2.97;;;1.30;;
46835;SDS011;32573;51.290;6.926;2023-07-28T01:25:39;2.65;;;1.10;;
46835;SDS011;32573;51.290;6.926;2023-07-28T01:28:17;2.80;;;1.15;;
46835;SDS011;32573;51.290;6.926;2023-07-28T01:30:46;2.95;;;1.10;;
46835;SDS011;32573;51.290;6.926;2023-07-28T01:33:14;2.75;;;1.10;;
46835;SDS011;32573;51.290;6.926;2023-07-28T01:35:43;2.30;;;1.02;;
46835;SDS011;32573;51.290;6.926;2023-07-28T01:38:11;2.65;;;1.15;;
46835;SDS011;32573;51.290;6.926;2023-07-28T01:40:40;2.78;;;1.05;;
46835;SDS011;32573;51.290;6.926;2023-07-28T01:43:08;2.90;;;1.10;;
46835;SDS011;32573;51.290;6.926;2023-07-28T01:45:38;2.97;;;1.20;;
46835;SDS011;32573;51.290;6.926;2023-07-28T01:48:07;3.25;;;1.30;;
46835;SDS011;32573;51.290;6.926;2023-07-28T01:50:36;2.90;;;1.30;;
46835;SDS011;32573;51.290;6.926;2023-07-28T01:53:05;2.42;;;1.15;;
46835;SDS011;32573;51.290;6.926;2023-07-28T01:55:34;2.80;;;1.02;;
46835;SDS011;32573;51.290;6.926;2023-07-28T01:58:03;3.08;;;1.40;;
46835;SDS011;32573;51.290;6.926;2023-07-28T02:00:31;2.33;;;1.00;;
46835;SDS011;32573;51.290;6.926;2023-07-28T02:03:01;2.90;;;1.30;;
46835;SDS011;32573;51.290;6.926;2023-07-28T02:05:30;2.78;;;1.20;;
46835;SDS011;32573;51.290;6.926;2023-07-28T02:07:59;2.42;;;1.10;;
46835;SDS011;32573;51.290;6.926;2023-07-28T02:10:28;3.25;;;1.40;;
46835;SDS011;32573;51.290;6.926;2023-07-28T02:12:57;2.22;;;1.00;;
46835;SDS011;32573;51.290;6.926;2023-07-28T02:15:26;2.50;;;1.10;;
46835;SDS011;32573;51.290;6.926;2023-07-28T02:17:56;2.55;;;1.15;;
46835;SDS011;32573;51.290;6.926;2023-07-28T02:20:26;2.35;;;1.10;;
46835;SDS011;32573;51.290;6.926;2023-07-28T02:22:55;2.35;;;1.00;;
46835;SDS011;32573;51.290;6.926;2023-07-28T02:25:24;3.13;;;1.00;;
46835;SDS011;32573;51.290;6.926;2023-07-28T02:27:52;2.33;;;0.90;;
46835;SDS011;32573;51.290;6.926;2023-07-28T02:30:21;2.45;;;1.00;;
46835;SDS011;32573;51.290;6.926;2023-07-28T02:32:49;2.67;;;1.10;;
46835;SDS011;32573;51.290;6.926;2023-07-28T02:35:18;2.33;;;0.93;;
46835;SDS011;32573;51.290;6.926;2023-07-28T02:37:49;1.52;;;0.90;;
46835;SDS011;32573;51.290;6.926;2023-07-28T02:40:17;2.30;;;1.00;;
46835;SDS011;32573;51.290;6.926;2023-07-28T02:42:46;2.33;;;1.00;;
46835;SDS011;32573;51.290;6.926;2023-07-28T02:45:15;2.20;;;0.98;;
46835;SDS011;32573;51.290;6.926;2023-07-28T02:47:43;2.22;;;1.00;;
46835;SDS011;32573;51.290;6.926;2023-07-28T02:50:12;1.75;;;0.90;;
46835;SDS011;32573;51.290;6.926;2023-07-28T02:52:40;2.33;;;0.90;;
46835;SDS011;32573;51.290;6.926;2023-07-28T02:55:10;2.70;;;1.10;;
46835;SDS011;32573;51.290;6.926;2023-07-28T02:57:39;2.25;;;0.90;;
46835;SDS011;32573;51.290;6.926;2023-07-28T03:00:07;1.63;;;0.80;;
46835;SDS011;32573;51.290;6.926;2023-07-28T03:02:38;2.60;;;1.00;;
46835;SDS011;32573;51.290;6.926;2023-07-28T03:05:07;2.40;;;1.00;;
46835;SDS011;32573;51.290;6.926;2023-07-28T03:07:42;2.53;;;0.90;;
46835;SDS011;32573;51.290;6.926;2023-07-28T03:10:12;1.95;;;0.90;;
46835;SDS011;32573;51.290;6.926;2023-07-28T03:12:43;1.85;;;0.90;;
46835;SDS011;32573;51.290;6.926;2023-07-28T03:15:12;2.45;;;1.00;;
46835;SDS011;32573;51.290;6.926;2023-07-28T03:17:40;2.05;;;0.90;;
46835;SDS011;32573;51.290;6.926;2023-07-28T03:20:09;2.40;;;1.02;;
46835;SDS011;32573;51.290;6.926;2023-07-28T03:22:38;1.80;;;0.90;;
46835;SDS011;32573;51.290;6.926;2023-07-28T03:25:07;1.80;;;0.80;;
46835;SDS011;32573;51.290;6.926;2023-07-28T03:27:38;2.63;;;0.90;;
46835;SDS011;32573;51.290;6.926;2023-07-28T03:30:07;2.00;;;1.00;;
46835;SDS011;32573;51.290;6.926;2023-07-28T03:32:38;2.72;;;1.00;;
46835;SDS011;32573;51.290;6.926;2023-07-28T03:35:07;2.38;;;1.00;;
46835;SDS011;32573;51.290;6.926;2023-07-28T03:37:41;2.85;;;1.20;;
46835;SDS011;32573;51.290;6.926;2023-07-28T03:40:10;2.17;;;1.00;;
46835;SDS011;32573;51.290;6.926;2023-07-28T03:42:48;2.20;;;1.00;;
46835;SDS011;32573;51.290;6.926;2023-07-28T03:45:16;2.53;;;0.95;;
46835;SDS011;32573;51.290;6.926;2023-07-28T03:47:45;2.08;;;1.00;;
46835;SDS011;32573;51.290;6.926;2023-07-28T03:50:13;2.60;;;1.00;;
46835;SDS011;32573;51.290;6.926;2023-07-28T03:52:42;2.90;;;1.02;;
46835;SDS011;32573;51.290;6.926;2023-07-28T03:55:10;2.50;;;1.02;;
46835;SDS011;32573;51.290;6.926;2023-07-28T03:57:39;2.80;;;1.13;;
46835;SDS011;32573;51.290;6.926;2023-07-28T04:00:10;2.38;;;1.00;;
46835;SDS011;32573;51.290;6.926;2023-07-28T04:02:40;3.08;;;1.27;;
46835;SDS011;32573;51.290;6.926;2023-07-28T04:05:09;2.60;;;1.02;;
46835;SDS011;32573;51.290;6.926;2023-07-28T04:07:37;2.50;;;1.00;;
46835;SDS011;32573;51.290;6.926;2023-07-28T04:10:06;2.30;;;1.10;;
46835;SDS011;32573;51.290;6.926;2023-07-28T04:12:35;2.65;;;1.10;;
46835;SDS011;32573;51.290;6.926;2023-07-28T04:15:06;3.05;;;1.20;;
46835;SDS011;32573;51.290;6.926;2023-07-28T04:17:36;2.08;;;0.88;;
46835;SDS011;32573;51.290;6.926;2023-07-28T04:20:06;2.70;;;1.00;;
46835;SDS011;32573;51.290;6.926;2023-07-28T04:22:35;2.90;;;1.00;;
46835;SDS011;32573;51.290;6.926;2023-07-28T04:25:04;2.22;;;1.00;;
46835;SDS011;32573;51.290;6.926;2023-07-28T04:27:33;1.85;;;0.90;;
46835;SDS011;32573;51.290;6.926;2023-07-28T04:30:04;1.65;;;0.80;;
46835;SDS011;32573;51.290;6.926;2023-07-28T04:32:33;2.08;;;0.98;;
46835;SDS011;32573;51.290;6.926;2023-07-28T04:35:12;1.83;;;0.90;;
46835;SDS011;32573;51.290;6.926;2023-07-28T04:37:56;2.00;;;0.82;;
46835;SDS011;32573;51.290;6.926;2023-07-28T04:40:39;1.95;;;0.90;;
46835;SDS011;32573;51.290;6.926;2023-07-28T04:43:09;2.22;;;0.85;;
46835;SDS011;32573;51.290;6.926;2023-07-28T04:45:38;2.05;;;0.80;;
46835;SDS011;32573;51.290;6.926;2023-07-28T04:48:14;1.75;;;0.80;;
46835;SDS011;32573;51.290;6.926;2023-07-28T04:50:44;1.58;;;0.80;;
46835;SDS011;32573;51.290;6.926;2023-07-28T04:53:31;1.80;;;0.77;;
46835;SDS011;32573;51.290;6.926;2023-07-28T04:56:04;1.63;;;0.80;;
46835;SDS011;32573;51.290;6.926;2023-07-28T04:58:32;2.35;;;0.80;;
46835;SDS011;32573;51.290;6.926;2023-07-28T05:01:01;1.45;;;0.80;;
46835;SDS011;32573;51.290;6.926;2023-07-28T05:03:31;2.42;;;1.00;;
46835;SDS011;32573;51.290;6.926;2023-07-28T05:06:15;1.80;;;0.90;;
46835;SDS011;32573;51.290;6.926;2023-07-28T05:08:44;2.15;;;0.93;;
46835;SDS011;32573;51.290;6.926;2023-07-28T05:11:18;2.60;;;1.00;;
46835;SDS011;32573;51.290;6.926;2023-07-28T05:13:46;2.70;;;1.17;;
46835;SDS011;32573;51.290;6.926;2023-07-28T05:16:14;2.10;;;0.93;;
46835;SDS011;32573;51.290;6.926;2023-07-28T05:19:01;1.95;;;0.95;;
46835;SDS011;32573;51.290;6.926;2023-07-28T05:21:51;2.80;;;1.00;;
46835;SDS011;32573;51.290;6.926;2023-07-28T05:24:25;2.70;;;1.20;;
46835;SDS011;32573;51.290;6.926;2023-07-28T05:26:54;2.90;;;1.25;;
46835;SDS011;32573;51.290;6.926;2023-07-28T05:29:22;2.78;;;1.20;;
46835;SDS011;32573;51.290;6.926;2023-07-28T05:31:53;3.00;;;1.30;;
46835;SDS011;32573;51.290;6.926;2023-07-28T05:34:29;2.65;;;1.20;;
46835;SDS011;32573;51.290;6.926;2023-07-28T05:36:59;2.90;;;1.20;;
46835;SDS011;32573;51.290;6.926;2023-07-28T05:39:31;3.33;;;1.50;;
46835;SDS011;32573;51.290;6.926;2023-07-28T05:41:59;3.20;;;1.30;;
46835;SDS011;32573;51.290;6.926;2023-07-28T05:44:28;3.00;;;1.30;;
46835;SDS011;32573;51.290;6.926;2023-07-28T05:46:57;3.47;;;1.50;;
46835;SDS011;32573;51.290;6.926;2023-07-28T05:49:25;3.50;;;1.40;;
46835;SDS011;32573;51.290;6.926;2023-07-28T05:51:54;3.50;;;1.50;;
46835;SDS011;32573;51.290;6.926;2023-07-28T05:54:24;3.63;;;1.65;;
46835;SDS011;32573;51.290;6.926;2023-07-28T05:56:53;3.63;;;1.73;;
46835;SDS011;32573;51.290;6.926;2023-07-28T05:59:21;3.38;;;1.58;;
46835;SDS011;32573;51.290;6.926;2023-07-28T06:01:50;3.58;;;1.63;;
46835;SDS011;32573;51.290;6.926;2023-07-28T06:04:31;3.83;;;1.70;;
46835;SDS011;32573;51.290;6.926;2023-07-28T06:07:02;3.20;;;1.60;;
46835;SDS011;32573;51.290;6.926;2023-07-28T06:09:31;4.10;;;1.70;;
46835;SDS011;32573;51.290;6.926;2023-07-28T06:12:00;3.63;;;1.67;;
46835;SDS011;32573;51.290;6.926;2023-07-28T06:14:29;3.50;;;1.50;;
46835;SDS011;32573;51.290;6.926;2023-07-28T06:16:58;4.13;;;1.67;;
46835;SDS011;32573;51.290;6.926;2023-07-28T06:19:29;3.70;;;1.50;;
46835;SDS011;32573;51.290;6.926;2023-07-28T06:21:58;4.03;;;1.80;;
46835;SDS011;32573;51.290;6.926;2023-07-28T06:24:27;3.55;;;1.45;;
46835;SDS011;32573;51.290;6.926;2023-07-28T06:27:00;3.50;;;1.48;;
46835;SDS011;32573;51.290;6.926;2023-07-28T06:29:35;4.10;;;1.50;;
46835;SDS011;32573;51.290;6.926;2023-07-28T06:32:04;3.45;;;1.52;;
46835;SDS011;32573;51.290;6.926;2023-07-28T06:34:33;3.35;;;1.33;;
46835;SDS011;32573;51.290;6.926;2023-07-28T06:37:02;3.88;;;1.60;;
46835;SDS011;32573;51.290;6.926;2023-07-28T06:39:30;3.58;;;1.67;;
46835;SDS011;32573;51.290;6.926;2023-07-28T06:42:00;3.20;;;1.27;;
46835;SDS011;32573;51.290;6.926;2023-07-28T06:44:29;3.97;;;1.70;;
46835;SDS011;32573;51.290;6.926;2023-07-28T06:46:58;3.70;;;1.70;;
46835;SDS011;32573;51.290;6.926;2023-07-28T06:49:26;3.20;;;1.40;;
46835;SDS011;32573;51.290;6.926;2023-07-28T06:51:55;2.97;;;1.40;;
46835;SDS011;32573;51.290;6.926;2023-07-28T06:54:23;2.97;;;1.45;;
46835;SDS011;32573;51.290;6.926;2023-07-28T06:56:52;3.22;;;1.33;;
46835;SDS011;32573;51.290;6.926;2023-07-28T06:59:24;4.22;;;1.58;;
46835;SDS011;32573;51.290;6.926;2023-07-28T07:01:54;3.72;;;1.60;;
46835;SDS011;32573;51.290;6.926;2023-07-28T07:04:23;3.50;;;1.40;;
46835;SDS011;32573;51.290;6.926;2023-07-28T07:06:51;3.13;;;1.20;;
46835;SDS011;32573;51.290;6.926;2023-07-28T07:09:20;2.60;;;1.10;;
46835;SDS011;32573;51.290;6.926;2023-07-28T07:11:48;3.15;;;1.30;;
46835;SDS011;32573;51.290;6.926;2023-07-28T07:14:17;2.80;;;1.23;;
46835;SDS011;32573;51.290;6.926;2023-07-28T07:16:48;2.97;;;1.10;;
46835;SDS011;32573;51.290;6.926;2023-07-28T07:19:16;2.97;;;1.20;;
46835;SDS011;32573;51.290;6.926;2023-07-28T07:21:45;2.83;;;1.20;;
46835;SDS011;32573;51.290;6.926;2023-07-28T07:24:14;2.40;;;1.10;;
46835;SDS011;32573;51.290;6.926;2023-07-28T07:26:43;2.45;;;1.10;;
46835;SDS011;32573;51.290;6.926;2023-07-28T07:29:11;2.92;;;1.30;;
46835;SDS011;32573;51.290;6.926;2023-07-28T07:31:40;3.33;;;1.23;;
46835;SDS011;32573;51.290;6.926;2023-07-28T07:34:09;2.92;;;1.30;;
46835;SDS011;32573;51.290;6.926;2023-07-28T07:36:38;2.95;;;1.13;;
46835;SDS011;32573;51.290;6.926;2023-07-28T07:39:07;3.40;;;1.27;;
46835;SDS011;32573;51.290;6.926;2023-07-28T07:41:35;2.88;;;1.20;;
46835;SDS011;32573;51.290;6.926;2023-07-28T07:44:04;3.10;;;1.20;;
46835;SDS011;32573;51.290;6.926;2023-07-28T07:46:32;3.17;;;1.40;;
46835;SDS011;32573;51.290;6.926;2023-07-28T07:49:01;3.13;;;1.10;;
46835;SDS011;32573;51.290;6.926;2023-07-28T07:51:33;2.15;;;0.98;;
46835;SDS011;32573;51.290;6.926;2023-07-28T07:54:02;3.10;;;1.00;;
46835;SDS011;32573;51.290;6.926;2023-07-28T07:56:31;2.50;;;1.02;;
46835;SDS011;32573;51.290;6.926;2023-07-28T07:58:59;3.08;;;1.17;;
46835;SDS011;32573;51.290;6.926;2023-07-28T08:01:28;2.08;;;1.00;;
46835;SDS011;32573;51.290;6.926;2023-07-28T08:03:56;2.33;;;1.00;;
46835;SDS011;32573;51.290;6.926;2023-07-28T08:06:25;3.00;;;0.95;;
46835;SDS011;32573;51.290;6.926;2023-07-28T08:08:55;2.28;;;1.00;;
46835;SDS011;32573;51.290;6.926;2023-07-28T08:11:25;2.38;;;0.90;;
46835;SDS011;32573;51.290;6.926;2023-07-28T08:13:53;2.20;;;0.90;;
46835;SDS011;32573;51.290;6.926;2023-07-28T08:16:22;2.95;;;1.20;;
46835;SDS011;32573;51.290;6.926;2023-07-28T08:18:50;3.25;;;1.40;;
46835;SDS011;32573;51.290;6.926;2023-07-28T08:21:19;2.88;;;1.20;;
46835;SDS011;32573;51.290;6.926;2023-07-28T08:23:47;3.78;;;1.70;;
46835;SDS011;32573;51.290;6.926;2023-07-28T08:26:17;3.05;;;1.38;;
46835;SDS011;32573;51.290;6.926;2023-07-28T08:28:45;3.25;;;1.50;;
46835;SDS011;32573;51.290;6.926;2023-07-28T08:31:14;3.50;;;1.42;;
46835;SDS011;32573;51.290;6.926;2023-07-28T08:33:42;3.33;;;1.50;;
46835;SDS011;32573;51.290;6.926;2023-07-28T08:36:10;3.20;;;1.50;;
46835;SDS011;32573;51.290;6.926;2023-07-28T08:38:39;3.75;;;1.52;;
46835;SDS011;32573;51.290;6.926;2023-07-28T08:41:08;3.10;;;1.50;;
46835;SDS011;32573;51.290;6.926;2023-07-28T08:43:37;3.45;;;1.60;;
46835;SDS011;32573;51.290;6.926;2023-07-28T08:46:08;3.50;;;1.50;;
46835;SDS011;32573;51.290;6.926;2023-07-28T08:48:36;4.50;;;1.50;;
46835;SDS011;32573;51.290;6.926;2023-07-28T08:51:05;3.40;;;1.58;;
46835;SDS011;32573;51.290;6.926;2023-07-28T08:53:35;3.20;;;1.30;;
46835;SDS011;32573;51.290;6.926;2023-07-28T08:56:03;3.92;;;1.73;;
46835;SDS011;32573;51.290;6.926;2023-07-28T08:58:33;3.38;;;1.45;;
46835;SDS011;32573;51.290;6.926;2023-07-28T09:01:02;3.08;;;1.30;;
46835;SDS011;32573;51.290;6.926;2023-07-28T09:03:32;3.78;;;1.70;;
46835;SDS011;32573;51.290;6.926;2023-07-28T09:06:04;3.53;;;1.52;;
46835;SDS011;32573;51.290;6.926;2023-07-28T09:08:35;4.43;;;1.90;;
46835;SDS011;32573;51.290;6.926;2023-07-28T09:11:04;3.97;;;1.90;;
46835;SDS011;32573;51.290;6.926;2023-07-28T09:13:37;4.00;;;1.80;;
46835;SDS011;32573;51.290;6.926;2023-07-28T09:16:17;3.25;;;1.52;;
46835;SDS011;32573;51.290;6.926;2023-07-28T09:18:46;3.50;;;1.60;;
46835;SDS011;32573;51.290;6.926;2023-07-28T09:21:18;3.38;;;1.48;;
46835;SDS011;32573;51.290;6.926;2023-07-28T09:23:48;3.58;;;1.60;;
46835;SDS011;32573;51.290;6.926;2023-07-28T09:26:17;3.45;;;1.48;;
46835;SDS011;32573;51.290;6.926;2023-07-28T09:28:45;3.35;;;1.48;;
46835;SDS011;32573;51.290;6.926;2023-07-28T09:31:14;3.45;;;1.60;;
46835;SDS011;32573;51.290;6.926;2023-07-28T09:33:44;3.55;;;1.50;;
46835;SDS011;32573;51.290;6.926;2023-07-28T09:36:14;3.25;;;1.50;;
46835;SDS011;32573;51.290;6.926;2023-07-28T09:38:44;3.67;;;1.55;;
46835;SDS011;32573;51.290;6.926;2023-07-28T09:41:12;3.97;;;1.60;;
46835;SDS011;32573;51.290;6.926;2023-07-28T09:43:41;3.38;;;1.33;;
46835;SDS011;32573;51.290;6.926;2023-07-28T09:46:11;3.53;;;1.45;;
46835;SDS011;32573;51.290;6.926;2023-07-28T09:48:43;3.58;;;1.45;;
46835;SDS011;32573;51.290;6.926;2023-07-28T09:51:17;3.22;;;1.40;;
46835;SDS011;32573;51.290;6.926;2023-07-28T09:53:49;3.38;;;1.60;;
46835;SDS011;32573;51.290;6.926;2023-07-28T09:56:25;3.22;;;1.50;;
46835;SDS011;32573;51.290;6.926;2023-07-28T09:58:56;4.35;;;1.58;;
46835;SDS011;32573;51.290;6.926;2023-07-28T10:01:25;3.00;;;1.30;;
46835;SDS011;32573;51.290;6.926;2023-07-28T10:03:57;2.70;;;1.30;;
46835;SDS011;32573;51.290;6.926;2023-07-28T10:06:26;3.45;;;1.45;;
46835;SDS011;32573;51.290;6.926;2023-07-28T10:08:56;3.30;;;1.50;;
46835;SDS011;32573;51.290;6.926;2023-07-28T10:11:25;2.90;;;1.40;;
46835;SDS011;32573;51.290;6.926;2023-07-28T10:13:55;3.10;;;1.30;;
46835;SDS011;32573;51.290;6.926;2023-07-28T10:16:29;3.15;;;1.40;;
46835;SDS011;32573;51.290;6.926;2023-07-28T10:19:00;3.10;;;1.52;;
46835;SDS011;32573;51.290;6.926;2023-07-28T10:21:28;3.60;;;1.27;;
46835;SDS011;32573;51.290;6.926;2023-07-28T10:23:59;3.08;;;1.30;;
46835;SDS011;32573;51.290;6.926;2023-07-28T10:26:31;2.92;;;1.38;;
46835;SDS011;32573;51.290;6.926;2023-07-28T10:29:10;4.78;;;1.42;;
46835;SDS011;32573;51.290;6.926;2023-07-28T10:31:49;3.20;;;1.33;;
46835;SDS011;32573;51.290;6.926;2023-07-28T10:34:20;3.92;;;1.30;;
46835;SDS011;32573;51.290;6.926;2023-07-28T10:36:56;3.05;;;1.40;;
46835;SDS011;32573;51.290;6.926;2023-07-28T10:39:25;3.55;;;1.42;;
46835;SDS011;32573;51.290;6.926;2023-07-28T10:42:01;2.67;;;1.25;;
46835;SDS011;32573;51.290;6.926;2023-07-28T10:44:33;3.67;;;1.55;;
46835;SDS011;32573;51.290;6.926;2023-07-28T10:47:04;3.55;;;1.38;;
46835;SDS011;32573;51.290;6.926;2023-07-28T10:49:36;3.05;;;1.35;;
46835;SDS011;32573;51.290;6.926;2023-07-28T10:52:05;2.90;;;1.38;;
46835;SDS011;32573;51.290;6.926;2023-07-28T10:54:33;3.60;;;1.48;;
46835;SDS011;32573;51.290;6.926;2023-07-28T10:57:02;2.40;;;1.20;;
46835;SDS011;32573;51.290;6.926;2023-07-28T10:59:33;3.35;;;1.30;;
46835;SDS011;32573;51.290;6.926;2023-07-28T11:02:03;2.78;;;1.30;;
46835;SDS011;32573;51.290;6.926;2023-07-28T11:04:31;3.40;;;1.40;;
46835;SDS011;32573;51.290;6.926;2023-07-28T11:07:01;2.58;;;1.20;;
46835;SDS011;32573;51.290;6.926;2023-07-28T11:09:29;2.40;;;1.10;;
46835;SDS011;32573;51.290;6.926;2023-07-28T11:11:58;2.88;;;1.35;;
46835;SDS011;32573;51.290;6.926;2023-07-28T11:14:27;2.45;;;1.10;;
46835;SDS011;32573;51.290;6.926;2023-07-28T11:16:56;2.83;;;1.40;;
46835;SDS011;32573;51.290;6.926;2023-07-28T11:19:25;2.90;;;1.30;;
46835;SDS011;32573;51.290;6.926;2023-07-28T11:21:54;2.45;;;1.20;;
46835;SDS011;32573;51.290;6.926;2023-07-28T11:24:26;2.90;;;1.10;;
46835;SDS011;32573;51.290;6.926;2023-07-28T11:26:54;2.38;;;1.20;;
46835;SDS011;32573;51.290;6.926;2023-07-28T11:29:26;2.40;;;1.10;;
46835;SDS011;32573;51.290;6.926;2023-07-28T11:31:55;3.22;;;1.20;;
46835;SDS011;32573;51.290;6.926;2023-07-28T11:34:24;2.58;;;1.10;;
46835;SDS011;32573;51.290;6.926;2023-07-28T11:36:52;2.83;;;1.10;;
46835;SDS011;32573;51.290;6.926;2023-07-28T11:39:22;2.70;;;1.17;;
46835;SDS011;32573;51.290;6.926;2023-07-28T11:41:53;2.65;;;1.23;;
46835;SDS011;32573;51.290;6.926;2023-07-28T11:44:22;2.47;;;1.10;;
46835;SDS011;32573;51.290;6.926;2023-07-28T11:46:52;3.03;;;1.20;;
46835;SDS011;32573;51.290;6.926;2023-07-28T11:49:22;2.63;;;1.13;;
46835;SDS011;32573;51.290;6.926;2023-07-28T11:51:52;2.90;;;1.25;;
46835;SDS011;32573;51.290;6.926;2023-07-28T11:54:22;2.25;;;0.98;;
46835;SDS011;32573;51.290;6.926;2023-07-28T11:56:53;2.40;;;1.10;;
46835;SDS011;32573;51.290;6.926;2023-07-28T11:59:24;2.55;;;1.20;;
46835;SDS011;32573;51.290;6.926;2023-07-28T12:01:53;2.35;;;1.15;;
46835;SDS011;32573;51.290;6.926;2023-07-28T12:04:26;2.30;;;1.05;;
46835;SDS011;32573;51.290;6.926;2023-07-28T12:07:06;1.98;;;1.05;;
46835;SDS011;32573;51.290;6.926;2023-07-28T12:09:48;2.40;;;1.10;;
46835;SDS011;32573;51.290;6.926;2023-07-28T12:12:38;2.30;;;1.00;;
46835;SDS011;32573;51.290;6.926;2023-07-28T12:15:21;2.72;;;1.10;;
46835;SDS011;32573;51.290;6.926;2023-07-28T12:18:00;2.33;;;1.00;;
46835;SDS011;32573;51.290;6.926;2023-07-28T12:20:43;2.50;;;1.00;;
46835;SDS011;32573;51.290;6.926;2023-07-28T12:23:15;2.25;;;1.00;;
46835;SDS011;32573;51.290;6.926;2023-07-28T12:25:47;2.15;;;1.00;;
46835;SDS011;32573;51.290;6.926;2023-07-28T12:28:18;1.63;;;0.90;;
46835;SDS011;32573;51.290;6.926;2023-07-28T12:30:46;2.60;;;1.20;;
46835;SDS011;32573;51.290;6.926;2023-07-28T12:33:18;1.77;;;0.90;;
46835;SDS011;32573;51.290;6.926;2023-07-28T12:35:49;2.47;;;0.90;;
46835;SDS011;32573;51.290;6.926;2023-07-28T12:38:18;2.25;;;0.95;;
46835;SDS011;32573;51.290;6.926;2023-07-28T12:40:50;2.03;;;1.00;;
46835;SDS011;32573;51.290;6.926;2023-07-28T12:43:23;2.40;;;1.00;;
46835;SDS011;32573;51.290;6.926;2023-07-28T12:45:55;2.10;;;1.00;;
46835;SDS011;32573;51.290;6.926;2023-07-28T12:48:26;2.35;;;0.98;;
46835;SDS011;32573;51.290;6.926;2023-07-28T12:50:55;1.73;;;0.82;;
46835;SDS011;32573;51.290;6.926;2023-07-28T12:53:26;2.17;;;1.00;;
46835;SDS011;32573;51.290;6.926;2023-07-28T12:55:55;2.33;;;1.00;;
46835;SDS011;32573;51.290;6.926;2023-07-28T12:58:28;2.17;;;1.00;;
46835;SDS011;32573;51.290;6.926;2023-07-28T13:01:01;2.00;;;0.90;;
46835;SDS011;32573;51.290;6.926;2023-07-28T13:03:31;1.80;;;0.90;;
46835;SDS011;32573;51.290;6.926;2023-07-28T13:06:00;1.70;;;0.90;;
46835;SDS011;32573;51.290;6.926;2023-07-28T13:08:28;1.77;;;0.90;;
46835;SDS011;32573;51.290;6.926;2023-07-28T13:10:59;2.13;;;0.90;;
46835;SDS011;32573;51.290;6.926;2023-07-28T13:13:32;2.42;;;0.90;;
46835;SDS011;32573;51.290;6.926;2023-07-28T13:16:01;2.42;;;1.10;;
46835;SDS011;32573;51.290;6.926;2023-07-28T13:18:30;1.65;;;0.82;;
46835;SDS011;32573;51.290;6.926;2023-07-28T13:20:59;1.73;;;0.80;;
46835;SDS011;32573;51.290;6.926;2023-07-28T13:23:28;1.98;;;0.90;;
46835;SDS011;32573;51.290;6.926;2023-07-28T13:25:56;1.80;;;0.90;;
46835;SDS011;32573;51.290;6.926;2023-07-28T13:28:25;2.92;;;1.10;;
46835;SDS011;32573;51.290;6.926;2023-07-28T13:30:55;2.35;;;1.00;;
46835;SDS011;32573;51.290;6.926;2023-07-28T13:33:23;2.03;;;0.90;;
46835;SDS011;32573;51.290;6.926;2023-07-28T13:35:52;1.60;;;0.80;;
46835;SDS011;32573;51.290;6.926;2023-07-28T13:38:20;1.92;;;0.90;;
46835;SDS011;32573;51.290;6.926;2023-07-28T13:40:48;2.72;;;1.00;;
46835;SDS011;32573;51.290;6.926;2023-07-28T13:43:17;1.92;;;1.00;;
46835;SDS011;32573;51.290;6.926;2023-07-28T13:45:45;2.90;;;1.02;;
46835;SDS011;32573;51.290;6.926;2023-07-28T13:48:15;2.55;;;1.00;;
46835;SDS011;32573;51.290;6.926;2023-07-28T13:50:46;1.92;;;1.00;;
46835;SDS011;32573;51.290;6.926;2023-07-28T13:53:17;2.28;;;1.00;;
46835;SDS011;32573;51.290;6.926;2023-07-28T13:55:49;2.10;;;0.90;;
46835;SDS011;32573;51.290;6.926;2023-07-28T13:58:23;1.73;;;0.90;;
46835;SDS011;32573;51.290;6.926;2023-07-28T14:00:52;2.22;;;0.98;;
46835;SDS011;32573;51.290;6.926;2023-07-28T14:03:22;2.25;;;0.82;;
46835;SDS011;32573;51.290;6.926;2023-07-28T14:05:51;1.85;;;0.90;;
46835;SDS011;32573;51.290;6.926;2023-07-28T14:08:19;1.50;;;0.90;;
46835;SDS011;32573;51.290;6.926;2023-07-28T14:10:48;1.75;;;0.90;;
46835;SDS011;32573;51.290;6.926;2023-07-28T14:13:16;1.08;;;0.70;;
46835;SDS011;32573;51.290;6.926;2023-07-28T14:15:44;1.23;;;0.73;;
46835;SDS011;32573;51.290;6.926;2023-07-28T14:18:13;1.58;;;0.80;;
46835;SDS011;32573;51.290;6.926;2023-07-28T14:20:42;1.88;;;0.80;;
46835;SDS011;32573;51.290;6.926;2023-07-28T14:23:21;1.92;;;1.10;;
46835;SDS011;32573;51.290;6.926;2023-07-28T14:25:50;1.95;;;0.80;;
46835;SDS011;32573;51.290;6.926;2023-07-28T14:28:19;2.03;;;0.80;;
46835;SDS011;32573;51.290;6.926;2023-07-28T14:30:49;2.25;;;0.85;;
46835;SDS011;32573;51.290;6.926;2023-07-28T14:33:18;1.58;;;0.80;;
46835;SDS011;32573;51.290;6.926;2023-07-28T14:35:48;2.72;;;0.80;;
46835;SDS011;32573;51.290;6.926;2023-07-28T14:38:17;1.27;;;0.70;;
46835;SDS011;32573;51.290;6.926;2023-07-28T14:40:46;1.52;;;0.80;;
46835;SDS011;32573;51.290;6.926;2023-07-28T14:43:16;2.03;;;0.80;;
46835;SDS011;32573;51.290;6.926;2023-07-28T14:45:45;1.25;;;0.70;;
46835;SDS011;32573;51.290;6.926;2023-07-28T14:48:13;2.33;;;0.90;;
46835;SDS011;32573;51.290;6.926;2023-07-28T14:50:41;1.42;;;0.80;;
46835;SDS011;32573;51.290;6.926;2023-07-28T14:56:00;1.83;;;0.80;;
46835;SDS011;32573;51.290;6.926;2023-07-28T14:58:29;1.90;;;0.90;;
46835;SDS011;32573;51.290;6.926;2023-07-28T15:00:57;1.58;;;0.80;;
46835;SDS011;32573;51.290;6.926;2023-07-28T15:03:27;1.75;;;0.80;;
46835;SDS011;32573;51.290;6.926;2023-07-28T15:05:58;2.03;;;0.90;;
46835;SDS011;32573;51.290;6.926;2023-07-28T15:08:27;1.63;;;0.80;;